createdAt,value
2019-04-21T00:01:54.570Z,99.10
2019-04-21T00:04:36.119Z,99.80
2019-04-21T00:07:08.687Z,99.70
2019-04-21T00:09:50.682Z,99.60
2019-04-21T00:12:12.406Z,99.90
2019-04-21T00:14:31.234Z,99.70
2019-04-21T00:16:57.519Z,99.90
2019-04-21T00:19:39.013Z,99.90
2019-04-21T00:22:19.095Z,99.90
2019-04-21T00:24:48.788Z,99.90
2019-04-21T00:27:21.408Z,99.90
2019-04-21T00:29:51.862Z,99.90
2019-04-21T00:32:19.226Z,99.90
2019-04-21T00:34:32.204Z,99.90
2019-04-21T00:37:11.388Z,99.90
2019-04-21T00:39:55.684Z,99.90
2019-04-21T00:42:21.606Z,99.90
2019-04-21T00:44:39.879Z,99.90
2019-04-21T00:47:14.035Z,99.90
2019-04-21T00:49:53.880Z,99.90
2019-04-21T00:52:56.503Z,99.90
2019-04-21T00:57:54.771Z,99.90
2019-04-21T01:00:18.757Z,99.90
2019-04-21T01:02:49.947Z,99.90
2019-04-21T01:05:18.531Z,99.90
2019-04-21T01:07:42.026Z,99.90
2019-04-21T01:10:06.568Z,99.90
2019-04-21T01:12:41.810Z,99.90
2019-04-21T01:15:18.624Z,99.90
2019-04-21T01:17:42.990Z,99.90
2019-04-21T01:20:02.854Z,99.90
2019-04-21T01:22:18.046Z,99.90
2019-04-21T01:24:49.074Z,99.90
2019-04-21T01:27:26.317Z,99.90
2019-04-21T01:30:08.264Z,99.90
2019-04-21T01:32:34.385Z,99.90
2019-04-21T01:35:03.994Z,99.90
2019-04-21T01:37:42.107Z,99.90
2019-04-21T01:40:14.298Z,99.90
2019-04-21T01:42:33.543Z,99.90
2019-04-21T01:45:00.007Z,99.90
2019-04-21T01:47:24.974Z,99.90
2019-04-21T01:49:52.318Z,99.90
2019-04-21T01:52:39.287Z,99.90
2019-04-21T01:55:18.298Z,99.90
2019-04-21T01:58:01.983Z,99.90
2019-04-21T02:00:41.982Z,99.90
2019-04-21T02:03:29.386Z,99.90
2019-04-21T02:05:44.010Z,99.90
2019-04-21T02:08:13.422Z,99.90
2019-04-21T02:10:49.090Z,99.90
2019-04-21T02:13:14.394Z,99.90
2019-04-21T02:15:41.963Z,99.90
2019-04-21T02:18:15.911Z,99.90
2019-04-21T02:20:32.721Z,99.90
2019-04-21T02:25:38.362Z,99.90
2019-04-21T02:28:17.993Z,99.90
2019-04-21T02:33:26.121Z,99.90
2019-04-21T02:36:20.663Z,99.90
2019-04-21T02:40:46.408Z,99.90
2019-04-21T02:43:19.598Z,99.90
2019-04-21T02:45:49.657Z,99.90
2019-04-21T02:50:50.043Z,99.90
2019-04-21T02:53:21.220Z,99.90
2019-04-21T02:55:43.651Z,99.90
2019-04-21T02:58:34.418Z,99.90
2019-04-21T03:04:26.370Z,99.90
2019-04-21T03:09:45.859Z,99.90
2019-04-21T03:12:14.890Z,99.90
2019-04-21T03:14:55.579Z,99.90
2019-04-21T03:17:14.605Z,99.90
2019-04-21T03:22:18.242Z,99.90
2019-04-21T03:24:53.586Z,99.90
2019-04-21T03:27:25.844Z,99.90
2019-04-21T03:29:42.546Z,99.90
2019-04-21T03:32:31.023Z,99.90
2019-04-21T03:37:07.685Z,99.90
2019-04-21T03:39:37.309Z,99.90
2019-04-21T03:42:18.742Z,99.90
2019-04-21T03:44:38.121Z,99.90
2019-04-21T03:47:08.800Z,99.90
2019-04-21T03:49:40.343Z,99.90
2019-04-21T03:52:15.058Z,99.90
2019-04-21T03:54:37.193Z,99.90
2019-04-21T03:57:19.942Z,99.90
2019-04-21T03:59:31.603Z,99.90
2019-04-21T04:02:39.013Z,99.90
2019-04-21T04:05:11.055Z,99.90
2019-04-21T04:10:12.991Z,99.90
2019-04-21T04:12:45.575Z,99.90
2019-04-21T04:15:12.413Z,99.90
2019-04-21T04:20:11.842Z,99.90
2019-04-21T04:22:48.171Z,99.90
2019-04-21T04:25:09.430Z,99.90
2019-04-21T04:27:53.833Z,99.90
2019-04-21T04:30:19.328Z,99.90
2019-04-21T04:32:36.450Z,99.90
2019-04-21T04:35:25.925Z,99.90
2019-04-21T04:37:38.266Z,99.90
2019-04-21T04:40:51.668Z,99.90
2019-04-21T04:43:16.089Z,99.90
2019-04-21T04:48:09.103Z,99.90
2019-04-21T04:50:45.306Z,99.90
2019-04-21T04:53:01.889Z,99.90
2019-04-21T04:55:35.367Z,99.90
2019-04-21T04:58:13.170Z,99.90
2019-04-21T05:00:34.970Z,99.90
2019-04-21T05:05:51.079Z,99.90
2019-04-21T05:08:14.402Z,99.90
2019-04-21T05:10:41.093Z,99.90
2019-04-21T05:12:56.994Z,99.90
2019-04-21T05:15:45.895Z,99.90
2019-04-21T05:18:03.180Z,99.90
2019-04-21T05:20:26.153Z,99.90
2019-04-21T05:25:13.199Z,99.90
2019-04-21T05:27:43.781Z,99.90
2019-04-21T05:30:29.346Z,99.90
2019-04-21T05:33:00.037Z,99.90
2019-04-21T05:36:05.402Z,99.90
2019-04-21T05:38:49.270Z,99.90
2019-04-21T05:41:15.589Z,99.90
2019-04-21T05:43:54.389Z,99.90
2019-04-21T05:46:25.229Z,99.90
2019-04-21T05:48:57.916Z,99.90
2019-04-21T05:51:25.792Z,99.90
2019-04-21T05:54:10.951Z,99.90
2019-04-21T05:56:33.200Z,99.90
2019-04-21T05:58:59.392Z,99.90
2019-04-21T06:01:33.327Z,99.90
2019-04-21T06:03:57.714Z,99.90
2019-04-21T06:06:33.698Z,99.90
2019-04-21T06:08:52.542Z,99.90
2019-04-21T06:11:28.780Z,99.90
2019-04-21T06:14:05.470Z,99.90
2019-04-21T06:16:34.485Z,99.90
2019-04-21T06:19:00.947Z,99.90
2019-04-21T06:21:23.277Z,99.90
2019-04-21T06:23:49.779Z,99.90
2019-04-21T06:28:50.363Z,99.90
2019-04-21T06:31:33.766Z,99.90
2019-04-21T06:33:48.780Z,99.90
2019-04-21T06:39:12.307Z,99.90
2019-04-21T06:41:33.903Z,99.90
2019-04-21T06:46:35.501Z,99.90
2019-04-21T06:49:02.534Z,99.90
2019-04-21T06:51:33.706Z,99.90
2019-04-21T06:54:04.309Z,99.90
2019-04-21T06:56:36.622Z,99.90
2019-04-21T06:59:01.384Z,99.90
2019-04-21T07:01:37.803Z,99.90
2019-04-21T07:04:05.801Z,99.90
2019-04-21T07:06:40.412Z,99.90
2019-04-21T07:09:10.350Z,99.90
2019-04-21T07:11:26.943Z,99.90
2019-04-21T07:14:05.681Z,99.90
2019-04-21T07:16:25.184Z,99.90
2019-04-21T07:21:29.728Z,99.90
2019-04-21T07:24:03.154Z,99.90
2019-04-21T07:26:25.617Z,99.90
2019-04-21T07:28:56.437Z,99.90
2019-04-21T07:31:25.423Z,99.90
2019-04-21T07:33:58.714Z,99.90
2019-04-21T07:36:32.341Z,99.20
2019-04-21T07:38:49.797Z,97.60
2019-04-21T07:41:09.657Z,97.30
2019-04-21T07:43:44.038Z,97.10
2019-04-21T07:46:10.101Z,97.30
2019-04-21T07:48:49.435Z,96.10
2019-04-21T07:51:55.145Z,96.20
2019-04-21T07:54:25.119Z,95.40
2019-04-21T07:56:32.979Z,96.00
2019-04-21T07:59:23.971Z,95.20
2019-04-21T08:01:50.761Z,93.80
2019-04-21T08:04:38.270Z,94.00
2019-04-21T08:06:49.448Z,94.50
2019-04-21T08:09:12.460Z,94.20
2019-04-21T08:11:36.763Z,93.50
2019-04-21T08:14:18.103Z,93.80
2019-04-21T08:16:45.050Z,92.70
2019-04-21T08:19:13.054Z,92.70
2019-04-21T08:21:40.536Z,91.50
2019-04-21T08:24:07.752Z,89.10
2019-04-21T08:26:58.674Z,90.00
2019-04-21T08:29:20.302Z,88.70
2019-04-21T08:31:54.044Z,84.60
2019-04-21T08:36:33.982Z,83.10
2019-04-21T08:39:08.818Z,82.60
2019-04-21T08:41:31.331Z,83.00
2019-04-21T08:44:02.211Z,83.70
2019-04-21T08:46:40.845Z,80.40
2019-04-21T08:49:10.884Z,79.20
2019-04-21T08:54:09.382Z,82.10
2019-04-21T08:56:55.832Z,77.80
2019-04-21T08:59:38.806Z,75.50
2019-04-21T09:02:24.891Z,76.30
2019-04-21T09:04:53.528Z,73.40
2019-04-21T09:07:29.154Z,70.90
2019-04-21T09:09:54.782Z,71.70
2019-04-21T09:12:22.577Z,70.50
2019-04-21T09:14:50.593Z,70.70
2019-04-21T09:17:18.017Z,72.00
2019-04-21T09:22:16.770Z,70.40
2019-04-21T09:24:46.835Z,67.30
2019-04-21T09:27:16.783Z,67.30
2019-04-21T09:29:35.457Z,69.60
2019-04-21T09:31:59.485Z,63.30
2019-04-21T09:34:34.323Z,66.50
2019-04-21T09:37:12.507Z,67.90
2019-04-21T09:39:29.199Z,65.30
2019-04-21T09:41:59.052Z,64.80
2019-04-21T09:44:32.914Z,65.40
2019-04-21T09:46:58.537Z,60.70
2019-04-21T09:49:29.098Z,63.20
2019-04-21T09:51:53.653Z,58.80
2019-04-21T09:54:26.526Z,57.50
2019-04-21T09:56:57.906Z,58.70
2019-04-21T09:59:28.434Z,56.00
2019-04-21T10:01:59.188Z,56.20
2019-04-21T10:04:18.734Z,55.20
2019-04-21T10:06:47.617Z,51.70
2019-04-21T10:09:18.377Z,51.70
2019-04-21T10:11:45.919Z,53.30
2019-04-21T10:14:13.781Z,53.80
2019-04-21T10:17:06.820Z,53.80
2019-04-21T10:19:34.152Z,50.90
2019-04-21T10:22:03.765Z,46.90
2019-04-21T10:24:30.836Z,48.70
2019-04-21T10:26:58.982Z,50.10
2019-04-21T10:29:29.455Z,48.70
2019-04-21T10:31:55.674Z,47.10
2019-04-21T10:34:23.395Z,46.60
2019-04-21T10:36:51.197Z,46.00
2019-04-21T10:39:19.872Z,44.40
2019-04-21T10:41:47.759Z,46.70
2019-04-21T10:44:15.110Z,45.70
2019-04-21T10:46:42.854Z,46.90
2019-04-21T10:49:12.660Z,47.40
2019-04-21T10:51:41.117Z,45.40
2019-04-21T10:54:08.709Z,43.00
2019-04-21T10:56:41.404Z,41.90
2019-04-21T10:59:05.343Z,41.60
2019-04-21T11:01:33.046Z,40.70
2019-04-21T11:04:14.239Z,44.80
2019-04-21T11:06:36.846Z,43.80
2019-04-21T11:09:08.706Z,47.80
2019-04-21T11:11:37.574Z,44.20
2019-04-21T11:14:06.572Z,44.60
2019-04-21T11:16:35.178Z,44.30
2019-04-21T11:19:04.052Z,43.90
2019-04-21T11:21:31.325Z,42.70
2019-04-21T11:23:58.544Z,44.50
2019-04-21T11:26:27.496Z,37.80
2019-04-21T11:28:55.103Z,37.70
2019-04-21T11:31:22.927Z,38.10
2019-04-21T11:33:51.179Z,37.60
2019-04-21T11:36:19.480Z,38.50
2019-04-21T11:39:23.282Z,38.70
2019-04-21T11:41:39.362Z,38.60
2019-04-21T11:44:07.793Z,38.40
2019-04-21T11:46:36.301Z,39.80
2019-04-21T11:49:04.160Z,39.50
2019-04-21T11:51:31.641Z,39.80
2019-04-21T11:53:59.202Z,39.20
2019-04-21T11:56:27.210Z,39.70
2019-04-21T11:58:54.790Z,41.70
2019-04-21T12:01:23.488Z,42.80
2019-04-21T12:03:51.753Z,41.70
2019-04-21T12:06:19.417Z,38.20
2019-04-21T12:08:49.890Z,39.70
2019-04-21T12:11:17.756Z,38.20
2019-04-21T12:13:45.878Z,39.80
2019-04-21T12:16:14.863Z,37.10
2019-04-21T12:18:42.970Z,40.30
2019-04-21T12:21:11.449Z,40.30
2019-04-21T12:23:38.831Z,37.70
2019-04-21T12:26:07.391Z,39.10
2019-04-21T12:28:35.248Z,39.30
2019-04-21T12:31:05.398Z,37.10
2019-04-21T12:33:50.195Z,38.40
2019-04-21T12:36:17.934Z,39.00
2019-04-21T12:38:50.843Z,40.80
2019-04-21T12:41:14.912Z,40.40
2019-04-21T12:43:42.778Z,38.80
2019-04-21T12:46:10.079Z,40.30
2019-04-21T12:48:38.034Z,38.90
2019-04-21T12:51:06.091Z,37.80
2019-04-21T12:53:34.076Z,37.00
2019-04-21T12:56:02.142Z,37.40
2019-04-21T12:58:31.126Z,35.80
2019-04-21T13:00:58.987Z,36.60
2019-04-21T13:03:28.272Z,39.20
2019-04-21T13:05:57.899Z,38.80
2019-04-21T13:08:27.063Z,37.30
2019-04-21T13:10:54.370Z,40.30
2019-04-21T13:13:21.987Z,37.30
2019-04-21T13:15:49.453Z,39.30
2019-04-21T13:18:16.830Z,39.20
2019-04-21T13:20:46.330Z,39.50
2019-04-21T13:23:13.870Z,39.60
2019-04-21T13:25:41.649Z,36.00
2019-04-21T13:28:10.453Z,37.60
2019-04-21T13:30:38.104Z,37.60
2019-04-21T13:33:05.333Z,38.30
2019-04-21T13:35:33.247Z,36.30
2019-04-21T13:38:00.645Z,36.80
2019-04-21T13:41:05.485Z,35.40
2019-04-21T13:43:20.934Z,37.00
2019-04-21T13:45:49.834Z,36.30
2019-04-21T13:48:18.800Z,38.30
2019-04-21T13:50:47.101Z,38.80
2019-04-21T13:53:14.950Z,40.40
2019-04-21T13:55:44.534Z,36.40
2019-04-21T13:58:12.427Z,36.20
2019-04-21T14:00:40.018Z,36.40
2019-04-21T14:03:07.825Z,39.70
2019-04-21T14:05:36.185Z,37.50
2019-04-21T14:08:05.056Z,37.40
2019-04-21T14:10:33.483Z,37.60
2019-04-21T14:13:02.468Z,38.00
2019-04-21T14:15:30.438Z,39.10
2019-04-21T14:17:58.389Z,40.30
2019-04-21T14:20:27.057Z,39.10
2019-04-21T14:22:55.774Z,39.10
2019-04-21T14:25:23.935Z,39.30
2019-04-21T14:27:52.588Z,41.00
2019-04-21T14:30:23.170Z,40.70
2019-04-21T14:32:50.355Z,40.90
2019-04-21T14:35:18.899Z,38.60
2019-04-21T14:37:46.701Z,39.40
2019-04-21T14:40:20.728Z,37.90
2019-04-21T14:42:44.414Z,39.10
2019-04-21T14:45:22.985Z,38.90
2019-04-21T14:48:05.221Z,37.60
2019-04-21T14:50:48.840Z,38.50
2019-04-21T14:53:21.877Z,38.00
2019-04-21T14:55:49.209Z,38.10
2019-04-21T14:58:17.200Z,37.90
2019-04-21T15:01:00.025Z,37.20
2019-04-21T15:03:27.978Z,37.50
2019-04-21T15:05:55.704Z,36.80
2019-04-21T15:08:24.817Z,36.10
2019-04-21T15:10:52.794Z,36.60
2019-04-21T15:13:21.730Z,37.80
2019-04-21T15:15:49.877Z,38.30
2019-04-21T15:18:18.793Z,32.90
2019-04-21T15:20:48.601Z,34.40
2019-04-21T15:23:15.743Z,35.90
2019-04-21T15:25:43.945Z,34.70
2019-04-21T15:28:11.671Z,36.60
2019-04-21T15:30:39.066Z,32.70
2019-04-21T15:33:06.785Z,32.90
2019-04-21T15:35:35.309Z,33.10
2019-04-21T15:38:04.079Z,32.60
2019-04-21T15:40:40.041Z,33.20
2019-04-21T15:43:02.285Z,32.30
2019-04-21T15:45:30.621Z,33.80
2019-04-21T15:47:58.234Z,33.50
2019-04-21T15:50:26.507Z,31.90
2019-04-21T15:52:55.921Z,32.50
2019-04-21T15:56:00.826Z,33.20
2019-04-21T15:58:48.442Z,33.20
2019-04-21T16:01:34.561Z,31.10
2019-04-21T16:04:02.852Z,31.70
2019-04-21T16:06:31.979Z,34.70
2019-04-21T16:09:01.377Z,33.30
2019-04-21T16:11:28.587Z,31.60
2019-04-21T16:13:57.421Z,32.60
2019-04-21T16:16:27.310Z,30.50
2019-04-21T16:18:54.383Z,30.40
2019-04-21T16:25:21.052Z,30.00
2019-04-21T16:27:49.311Z,32.30
2019-04-21T16:30:17.655Z,30.70
2019-04-21T16:32:46.024Z,30.90
2019-04-21T16:35:14.987Z,33.40
2019-04-21T16:37:43.619Z,33.00
2019-04-21T16:40:11.991Z,31.40
2019-04-21T16:42:40.405Z,31.10
2019-04-21T16:45:08.614Z,30.70
2019-04-21T16:47:35.948Z,30.20
2019-04-21T16:50:03.898Z,29.30
2019-04-21T16:52:56.615Z,29.50
2019-04-21T16:55:53.187Z,30.10
2019-04-21T16:58:45.974Z,28.70
2019-04-21T17:01:20.002Z,29.70
2019-04-21T17:03:48.580Z,30.90
2019-04-21T17:06:17.374Z,30.90
2019-04-21T17:08:47.007Z,29.40
2019-04-21T17:11:22.768Z,30.80
2019-04-21T17:13:45.672Z,34.00
2019-04-21T17:16:42.082Z,33.90
2019-04-21T17:18:56.297Z,33.00
2019-04-21T17:21:13.209Z,33.90
2019-04-21T17:23:41.566Z,32.40
2019-04-21T17:26:19.319Z,32.10
2019-04-21T17:28:47.193Z,32.70
2019-04-21T17:31:16.094Z,33.20
2019-04-21T17:33:46.460Z,34.50
2019-04-21T17:36:14.589Z,34.10
2019-04-21T17:38:41.958Z,35.20
2019-04-21T17:41:15.594Z,36.10
2019-04-21T17:43:39.536Z,35.40
2019-04-21T17:46:06.973Z,34.80
2019-04-21T17:48:34.810Z,36.00
2019-04-21T17:51:17.322Z,36.90
2019-04-21T17:54:00.704Z,38.80
2019-04-21T17:56:57.818Z,38.90
2019-04-21T17:59:25.058Z,39.50
2019-04-21T18:01:50.123Z,39.30
2019-04-21T18:04:15.354Z,38.70
2019-04-21T18:07:05.070Z,38.80
2019-04-21T18:09:44.172Z,39.20
2019-04-21T18:12:07.482Z,39.80
2019-04-21T18:14:22.136Z,40.30
2019-04-21T18:16:51.653Z,40.70
2019-04-21T18:19:26.004Z,41.00
2019-04-21T18:22:09.008Z,41.50
2019-04-21T18:24:48.925Z,42.70
2019-04-21T18:27:09.737Z,42.50
2019-04-21T18:29:38.437Z,43.00
2019-04-21T18:32:06.317Z,43.40
2019-04-21T18:35:08.827Z,44.10
2019-04-21T18:38:05.719Z,44.30
2019-04-21T18:40:27.924Z,44.80
2019-04-21T18:43:23.877Z,45.00
2019-04-21T18:46:22.871Z,45.20
2019-04-21T18:48:51.016Z,46.00
2019-04-21T18:51:35.855Z,48.20
2019-04-21T18:54:14.865Z,49.80
2019-04-21T18:56:27.623Z,48.90
2019-04-21T18:58:56.363Z,50.80
2019-04-21T19:01:27.689Z,50.80
2019-04-21T19:03:55.958Z,53.30
2019-04-21T19:06:42.402Z,53.40
2019-04-21T19:09:11.575Z,54.00
2019-04-21T19:11:36.037Z,54.30
2019-04-21T19:21:33.230Z,58.00
2019-04-21T19:24:17.996Z,56.90
2019-04-21T19:26:46.347Z,58.70
2019-04-21T19:29:12.491Z,59.50
2019-04-21T19:31:42.705Z,60.60
2019-04-21T19:33:55.407Z,62.20
2019-04-21T19:36:17.207Z,63.50
2019-04-21T19:38:55.860Z,63.80
2019-04-21T19:41:28.081Z,64.10
2019-04-21T19:44:05.262Z,66.30
2019-04-21T19:46:30.631Z,67.70
2019-04-21T19:49:01.204Z,68.40
2019-04-21T19:51:30.313Z,66.60
2019-04-21T19:53:50.444Z,67.90
2019-04-21T19:56:10.041Z,69.50
2019-04-21T19:58:42.004Z,69.90
2019-04-21T20:01:07.583Z,72.50
2019-04-21T20:03:36.624Z,72.60
2019-04-21T20:06:16.454Z,74.90
2019-04-21T20:08:46.949Z,75.80
2019-04-21T20:11:20.239Z,76.20
2019-04-21T20:14:35.891Z,78.00
2019-04-21T20:16:29.071Z,80.20
2019-04-21T20:18:39.869Z,81.20
2019-04-21T20:21:01.886Z,79.40
2019-04-21T20:23:32.726Z,80.40
2019-04-21T20:26:02.649Z,81.90
2019-04-21T20:28:42.721Z,83.30
2019-04-21T20:31:23.339Z,86.30
2019-04-21T20:36:15.838Z,87.60
2019-04-21T20:38:35.790Z,88.40
2019-04-21T20:41:03.414Z,88.10
2019-04-21T20:43:42.735Z,86.80
2019-04-21T20:46:15.713Z,86.60
2019-04-21T20:48:40.175Z,88.00
2019-04-21T20:51:18.439Z,89.00
2019-04-21T20:53:35.929Z,90.20
2019-04-21T20:56:05.216Z,90.60
2019-04-21T20:58:34.254Z,91.40
2019-04-21T21:01:32.701Z,91.00
2019-04-21T21:03:35.204Z,91.70
2019-04-21T21:05:58.603Z,91.60
2019-04-21T21:08:35.750Z,91.70
2019-04-21T21:11:02.396Z,91.70
2019-04-21T21:13:36.848Z,92.10
2019-04-21T21:16:10.166Z,93.50
2019-04-21T21:19:06.991Z,92.80
2019-04-21T21:21:20.681Z,93.50
2019-04-21T21:23:49.298Z,94.40
2019-04-21T21:26:21.521Z,94.80
2019-04-21T21:28:44.117Z,93.90
2019-04-21T21:31:16.404Z,93.30
2019-04-21T21:33:50.655Z,94.40
2019-04-21T21:36:13.771Z,94.50
2019-04-21T21:38:43.665Z,95.80
2019-04-21T21:41:07.570Z,94.90
2019-04-21T21:43:27.521Z,94.40
2019-04-21T21:46:29.218Z,94.60
2019-04-21T21:49:01.289Z,96.10
2019-04-21T21:51:22.871Z,95.90
2019-04-21T21:53:44.370Z,95.30
2019-04-21T21:56:11.730Z,95.50
2019-04-21T21:58:42.480Z,95.70
2019-04-21T22:01:13.186Z,96.10
2019-04-21T22:03:46.214Z,96.60
2019-04-21T22:06:15.704Z,96.70
2019-04-21T22:08:40.515Z,97.40
2019-04-21T22:11:08.861Z,97.40
2019-04-21T22:13:46.936Z,97.30
2019-04-21T22:16:10.392Z,97.40
2019-04-21T22:18:56.783Z,98.30
2019-04-21T22:21:13.933Z,98.60
2019-04-21T22:23:44.141Z,99.50
2019-04-21T22:26:05.177Z,99.10
2019-04-21T22:28:33.787Z,98.40
2019-04-21T22:31:06.754Z,98.00
2019-04-21T22:33:32.212Z,98.10
2019-04-21T22:36:09.954Z,98.00
2019-04-21T22:38:43.772Z,98.30
2019-04-21T22:41:10.639Z,99.50
2019-04-21T22:43:36.397Z,99.10
2019-04-21T22:45:59.112Z,99.60
2019-04-21T22:48:28.990Z,99.70
2019-04-21T22:50:56.395Z,99.90
2019-04-21T22:53:28.013Z,99.80
2019-04-21T22:55:57.246Z,99.40
2019-04-21T22:58:28.201Z,99.90
2019-04-21T23:00:56.049Z,99.80
2019-04-21T23:03:24.842Z,99.90
2019-04-21T23:05:53.513Z,99.90
2019-04-21T23:08:27.966Z,99.90
2019-04-21T23:10:57.877Z,99.90
2019-04-21T23:13:23.381Z,99.90
2019-04-21T23:15:53.630Z,99.90
2019-04-21T23:18:31.916Z,99.90
2019-04-21T23:21:03.332Z,99.90
2019-04-21T23:23:37.315Z,99.90
2019-04-21T23:26:01.271Z,99.90
2019-04-21T23:28:39.150Z,99.90
2019-04-21T23:31:09.832Z,99.90
2019-04-21T23:33:16.404Z,99.90
2019-04-21T23:35:46.049Z,99.90
2019-04-21T23:38:12.937Z,99.90
2019-04-21T23:40:48.738Z,99.90
2019-04-21T23:43:18.588Z,99.90
2019-04-21T23:45:43.229Z,99.90
2019-04-21T23:48:21.697Z,99.90
2019-04-21T23:50:50.719Z,99.90
2019-04-21T23:53:08.059Z,99.90
2019-04-21T23:55:35.375Z,99.90
2019-04-21T23:58:08.076Z,99.90
